Time;durP1;ratioP1;P1;durP2;ratioP2;P2;SDS_P1;SDS_P2;PMS_P1;PMS_P2;Temp;Humidity;BMP_temperature;BMP_pressure;BME280_temperature;BME280_humidity;BME280_pressure;Samples;Min_cycle;Max_cycle;Signal;HPM_P1;HPM_P2
2022/03/10 00:00:32;;;;;;;;;;;;;;;3.33;72.49;99036.42;1654919;85;20277;-82
2022/03/10 00:03:01;;;;;;;;;;;;;;;3.27;73.03;99042.63;1669127;85;21036;-83
2022/03/10 00:05:27;;;;;;;;;;;;;;;3.19;73.59;99037.30;1668609;85;21988;-83
2022/03/10 00:07:59;;;;;;;;;;;;;;;3.13;74.05;99044.80;1668613;85;26806;-83
2022/03/10 00:10:25;;;;;;;;;;;;;;;3.08;74.47;99048.41;1665045;85;24474;-83
2022/03/10 00:12:52;;;;;;;;;;;;;;;3.04;74.91;99053.28;1664570;85;20506;-82
2022/03/10 00:15:21;;;;;;;;;;;;;;;2.98;75.28;99044.41;1667737;85;25024;-83
2022/03/10 00:17:47;;;;;;;;;;;;;;;2.93;75.68;99054.45;1663959;85;22241;-83
2022/03/10 00:20:13;;;;;;;;;;;;;;;2.90;76.10;99052.38;1669916;85;26005;-83
2022/03/10 00:22:45;;;;;;;;;;;;;;;2.86;76.49;99052.92;1667107;85;24518;-82
2022/03/10 00:25:11;;;;;;;;;;;;;;;2.83;76.87;99058.64;1659197;85;20468;-83
2022/03/10 00:27:37;;;;;;;;;;;;;;;2.82;77.27;99062.11;1658802;85;25048;-83
2022/03/10 00:30:04;;;;;;;;;;;;;;;2.79;77.66;99055.72;1676121;85;22043;-83
2022/03/10 00:32:30;;;;;;;;;;;;;;;2.77;78.05;99064.83;1657048;85;26049;-84
2022/03/10 00:34:56;;;;;;;;;;;;;;;2.75;78.46;99060.14;1657794;85;24406;-84
2022/03/10 00:37:22;;;;;;;;;;;;;;;2.71;78.90;99066.30;1666182;85;20213;-85
2022/03/10 00:39:50;;;;;;;;;;;;;;;2.70;79.29;99064.59;1655309;85;25628;-84
2022/03/10 00:42:16;;;;;;;;;;;;;;;2.69;79.71;99074.97;1651343;85;22059;-85
2022/03/10 00:44:42;;;;;;;;;;;;;;;2.67;80.09;99073.73;1654789;86;21116;-85
2022/03/10 00:47:08;;;;;;;;;;;;;;;2.66;80.51;99073.33;1652743;86;24471;-83
2022/03/10 00:49:34;;;;;;;;;;;;;;;2.64;80.99;99082.85;1653816;86;20228;-83
2022/03/10 00:52:00;;;;;;;;;;;;;;;2.62;81.42;99082.51;1649247;85;25077;-82
2022/03/10 00:54:26;;;;;;;;;;;;;;;2.64;81.85;99092.34;1645104;85;22373;-82
2022/03/10 00:56:52;;;;;;;;;;;;;;;2.65;82.24;99093.59;1652196;85;20980;-82
2022/03/10 00:59:19;;;;;;;;;;;;;;;2.64;82.65;99099.64;1664009;85;24547;-83
2022/03/10 01:01:45;;;;;;;;;;;;;;;2.56;83.03;99093.00;1632003;86;20514;-82
2022/03/10 01:04:11;;;;;;;;;;;;;;;2.53;83.32;99097.80;1656231;85;24949;-86
2022/03/10 01:06:39;;;;;;;;;;;;;;;2.47;83.60;99101.39;1657864;85;22082;-84
2022/03/10 01:09:06;;;;;;;;;;;;;;;2.39;83.87;99099.91;1666003;85;25990;-84
2022/03/10 01:11:33;;;;;;;;;;;;;;;2.31;84.05;99105.70;1655948;85;24497;-86
2022/03/10 01:13:59;;;;;;;;;;;;;;;2.23;84.20;99105.07;1667718;85;20219;-85
2022/03/10 01:16:25;;;;;;;;;;;;;;;2.19;84.33;99112.47;1650626;85;20265;-85
2022/03/10 01:18:53;;;;;;;;;;;;;;;2.15;84.45;99109.56;1668867;85;21839;-86
2022/03/10 01:21:19;;;;;;;;;;;;;;;2.08;84.52;99114.88;1669949;85;26082;-86
2022/03/10 01:23:45;;;;;;;;;;;;;;;2.03;84.57;99127.05;1650542;86;24428;-86
2022/03/10 01:26:11;;;;;;;;;;;;;;;2.00;84.62;99118.55;1647269;86;20231;-85
2022/03/10 01:28:37;;;;;;;;;;;;;;;1.96;84.68;99126.82;1664484;85;25039;-85
2022/03/10 01:31:03;;;;;;;;;;;;;;;1.92;84.75;99125.17;1653306;85;22109;-85
2022/03/10 01:33:29;;;;;;;;;;;;;;;1.91;84.80;99120.89;1664735;85;26047;-86
2022/03/10 01:35:55;;;;;;;;;;;;;;;1.89;84.88;99117.52;1644304;86;24408;-86
2022/03/10 01:38:21;;;;;;;;;;;;;;;1.87;84.97;99110.69;1636532;86;20260;-86
2022/03/10 01:40:47;;;;;;;;;;;;;;;1.85;85.08;99118.48;1643277;86;25017;-86
2022/03/10 01:43:14;;;;;;;;;;;;;;;1.81;85.18;99121.15;1663905;85;22029;-86
2022/03/10 01:45:40;;;;;;;;;;;;;;;1.77;85.28;99135.02;1660536;85;26107;-85
2022/03/10 01:48:06;;;;;;;;;;;;;;;1.74;85.42;99124.34;1658547;85;25227;-86
2022/03/10 01:50:32;;;;;;;;;;;;;;;1.73;85.56;99122.64;1655344;85;20227;-86
2022/03/10 01:52:59;;;;;;;;;;;;;;;1.70;85.69;99129.14;1664491;85;20698;-86
2022/03/10 01:55:26;;;;;;;;;;;;;;;1.72;85.87;99130.41;1656481;85;22063;-86
2022/03/10 01:57:52;;;;;;;;;;;;;;;1.68;86.07;99130.49;1663680;85;26055;-85
2022/03/10 02:00:18;;;;;;;;;;;;;;;1.67;86.25;99126.21;1664578;85;24391;-85
2022/03/10 02:02:45;;;;;;;;;;;;;;;1.66;86.43;99131.39;1666305;85;20538;-85
2022/03/10 02:05:11;;;;;;;;;;;;;;;1.66;86.62;99141.28;1668753;85;25114;-85
2022/03/10 02:10:26;;;;;;;;;;;;;;;1.56;86.92;99139.80;1667854;85;26071;-84
2022/03/10 02:12:54;;;;;;;;;;;;;;;1.50;87.13;99127.03;1669180;85;24713;-84
2022/03/10 02:18:07;;;;;;;;;;;;;;;1.36;87.35;99129.52;1662247;85;25809;-86
2022/03/10 02:20:35;;;;;;;;;;;;;;;1.32;87.41;99134.30;1671345;85;22075;-86
2022/03/10 02:23:01;;;;;;;;;;;;;;;1.28;87.45;99148.16;1670295;85;25954;-86
2022/03/10 02:25:28;;;;;;;;;;;;;;;1.22;87.46;99160.30;1667339;85;25442;-85
2022/03/10 02:27:55;;;;;;;;;;;;;;;1.17;87.47;99161.27;1651609;85;20318;-86
2022/03/10 02:30:22;;;;;;;;;;;;;;;1.14;87.49;99165.21;1649636;86;25038;-85
2022/03/10 02:32:49;;;;;;;;;;;;;;;1.10;87.51;99171.28;1648051;86;23827;-86
2022/03/10 02:35:16;;;;;;;;;;;;;;;1.07;87.57;99184.24;1642921;86;26266;-86
2022/03/10 02:37:42;;;;;;;;;;;;;;;1.04;87.63;99185.14;1645330;86;24431;-86
2022/03/10 02:40:10;;;;;;;;;;;;;;;1.07;87.71;99193.27;1657519;85;20502;-85
2022/03/10 02:42:36;;;;;;;;;;;;;;;1.06;87.81;99200.58;1658174;85;25049;-86
2022/03/10 02:45:03;;;;;;;;;;;;;;;1.02;87.89;99204.95;1653198;86;22056;-85
2022/03/10 02:47:29;;;;;;;;;;;;;;;1.01;87.95;99210.98;1657378;86;26039;-86
2022/03/10 02:49:55;;;;;;;;;;;;;;;1.03;88.06;99206.66;1658979;86;24526;-85
2022/03/10 02:52:24;;;;;;;;;;;;;;;1.05;88.16;99208.75;1671671;84;20498;-86
2022/03/10 02:54:52;;;;;;;;;;;;;;;1.07;88.29;99208.30;1686701;84;25051;-86
2022/03/10 02:57:18;;;;;;;;;;;;;;;1.05;88.35;99216.48;1692878;84;22143;-86
2022/03/10 02:59:44;;;;;;;;;;;;;;;1.00;88.31;99222.16;1682534;84;20947;-86
2022/03/10 03:02:11;;;;;;;;;;;;;;;0.97;88.26;99223.53;1683962;84;24404;-86
2022/03/10 03:04:37;;;;;;;;;;;;;;;0.97;88.25;99227.39;1666079;84;20286;-86
2022/03/10 03:07:04;;;;;;;;;;;;;;;0.98;88.25;99226.95;1686855;84;24932;-86
2022/03/10 03:09:30;;;;;;;;;;;;;;;0.99;88.28;99228.19;1690012;84;21914;-85
2022/03/10 03:11:56;;;;;;;;;;;;;;;0.97;88.28;99235.12;1686592;84;26022;-85
2022/03/10 03:14:23;;;;;;;;;;;;;;;0.99;88.29;99236.36;1692668;82;24415;-86
2022/03/10 03:16:49;;;;;;;;;;;;;;;0.96;88.29;99230.84;1697144;84;20257;-86
2022/03/10 03:19:16;;;;;;;;;;;;;;;0.93;88.20;99233.45;1693328;84;25076;-86
2022/03/10 03:21:43;;;;;;;;;;;;;;;0.92;88.13;99233.51;1695304;84;22073;-86
2022/03/10 03:24:08;;;;;;;;;;;;;;;0.91;88.08;99235.23;1697326;84;26016;-85
2022/03/10 03:26:35;;;;;;;;;;;;;;;0.89;88.01;99233.55;1688064;84;24506;-86
2022/03/10 03:29:01;;;;;;;;;;;;;;;0.92;87.99;99243.81;1694642;84;20497;-86
2022/03/10 03:31:27;;;;;;;;;;;;;;;0.90;87.96;99248.98;1695530;84;25026;-86
2022/03/10 03:33:53;;;;;;;;;;;;;;;0.92;87.91;99256.70;1677136;84;22032;-86
2022/03/10 03:36:19;;;;;;;;;;;;;;;0.84;87.77;99258.96;1692282;84;26014;-84
2022/03/10 03:38:45;;;;;;;;;;;;;;;0.80;87.63;99262.48;1689539;84;20887;-83
2022/03/10 03:41:11;;;;;;;;;;;;;;;0.76;87.55;99262.56;1695416;83;20264;-83
2022/03/10 03:43:37;;;;;;;;;;;;;;;0.77;87.49;99260.38;1697161;84;24950;-84
2022/03/10 03:46:03;;;;;;;;;;;;;;;0.76;87.49;99262.09;1700331;83;22002;-84
2022/03/10 03:48:29;;;;;;;;;;;;;;;0.77;87.47;99268.10;1697041;84;25968;-84
2022/03/10 03:50:55;;;;;;;;;;;;;;;0.76;87.46;99267.72;1694936;84;24415;-84
2022/03/10 03:53:21;;;;;;;;;;;;;;;0.72;87.43;99269.47;1692508;83;20296;-84
2022/03/10 03:55:48;;;;;;;;;;;;;;;0.69;87.34;99273.41;1698418;84;25013;-85
2022/03/10 03:58:14;;;;;;;;;;;;;;;0.69;87.30;99281.56;1709061;83;21991;-84
2022/03/10 04:00:40;;;;;;;;;;;;;;;0.70;87.28;99285.84;1680946;85;26142;-85
2022/03/10 04:03:07;;;;;;;;;;;;;;;0.70;87.27;99284.13;1680789;85;24478;-84
2022/03/10 04:05:33;;;;;;;;;;;;;;;0.70;87.25;99284.56;1703093;84;20384;-84
2022/03/10 04:07:59;;;;;;;;;;;;;;;0.69;87.23;99288.86;1712219;83;20275;-85
2022/03/10 04:10:26;;;;;;;;;;;;;;;0.69;87.17;99287.57;1684305;85;22015;-85
2022/03/10 04:12:52;;;;;;;;;;;;;;;0.69;87.11;99293.16;1696088;83;25982;-83
2022/03/10 04:15:18;;;;;;;;;;;;;;;0.66;87.00;99295.77;1708607;83;25068;-83
2022/03/10 04:17:44;;;;;;;;;;;;;;;0.64;86.92;99293.23;1705098;83;20548;-83
2022/03/10 04:20:13;;;;;;;;;;;;;;;0.65;86.88;99294.94;1706119;83;24958;-83
2022/03/10 04:22:39;;;;;;;;;;;;;;;0.66;86.83;99291.47;1708434;83;22142;-83
2022/03/10 04:25:05;;;;;;;;;;;;;;;0.65;86.77;99301.38;1685169;83;26032;-83
2022/03/10 04:27:31;;;;;;;;;;;;;;;0.65;86.73;99300.09;1702414;83;24467;-83
2022/03/10 04:29:57;;;;;;;;;;;;;;;0.65;86.67;99303.10;1707162;83;20703;-83
2022/03/10 04:32:23;;;;;;;;;;;;;;;0.65;86.63;99309.11;1704252;83;25039;-83
2022/03/10 04:34:50;;;;;;;;;;;;;;;0.64;86.59;99311.27;1702330;83;22068;-83
2022/03/10 04:37:16;;;;;;;;;;;;;;;0.64;86.57;99314.27;1707556;83;26026;-83
2022/03/10 04:39:42;;;;;;;;;;;;;;;0.61;86.43;99318.17;1709340;83;24406;-83
2022/03/10 04:42:08;;;;;;;;;;;;;;;0.59;86.38;99321.23;1708626;83;20210;-81
2022/03/10 04:44:34;;;;;;;;;;;;;;;0.57;86.36;99325.10;1705872;83;20404;-81
2022/03/10 04:47:00;;;;;;;;;;;;;;;0.57;86.34;99330.25;1704426;83;21988;-81
2022/03/10 04:49:26;;;;;;;;;;;;;;;0.55;86.36;99333.28;1703020;83;26025;-81
2022/03/10 04:51:52;;;;;;;;;;;;;;;0.48;86.36;99332.13;1710047;83;24510;-82
2022/03/10 04:54:18;;;;;;;;;;;;;;;0.44;86.40;99337.73;1694070;84;20242;-81
2022/03/10 04:56:45;;;;;;;;;;;;;;;0.46;86.48;99342.88;1699136;84;25078;-81
2022/03/10 04:59:11;;;;;;;;;;;;;;;0.44;86.56;99345.46;1709010;83;20375;-81
2022/03/10 05:01:37;;;;;;;;;;;;;;;0.40;86.65;99342.09;1701447;84;26022;-82
2022/03/10 05:04:03;;;;;;;;;;;;;;;0.36;86.69;99345.59;1692183;83;20248;-79
2022/03/10 05:06:29;;;;;;;;;;;;;;;0.34;86.72;99343.90;1695700;84;20312;-79
2022/03/10 05:08:55;;;;;;;;;;;;;;;0.31;86.77;99340.09;1697855;84;24996;-79
2022/03/10 05:11:21;;;;;;;;;;;;;;;0.26;86.80;99344.03;1701260;84;22039;-79
2022/03/10 05:13:47;;;;;;;;;;;;;;;0.23;86.83;99344.05;1700883;84;25989;-80
2022/03/10 05:16:13;;;;;;;;;;;;;;;0.21;86.88;99345.81;1696163;84;24495;-80
2022/03/10 05:18:39;;;;;;;;;;;;;;;0.19;86.96;99350.12;1700137;84;20218;-81
2022/03/10 05:21:05;;;;;;;;;;;;;;;0.18;87.04;99353.56;1699037;84;20290;-81
2022/03/10 05:23:31;;;;;;;;;;;;;;;0.18;87.15;99358.71;1694534;84;20312;-81
2022/03/10 05:25:57;;;;;;;;;;;;;;;0.14;87.22;99349.34;1700082;83;26673;-81
2022/03/10 05:28:23;;;;;;;;;;;;;;;0.14;87.31;99366.06;1702162;82;20264;-81
2022/03/10 05:30:50;;;;;;;;;;;;;;;0.13;87.37;99368.22;1694435;84;20168;-81
2022/03/10 05:33:17;;;;;;;;;;;;;;;0.13;87.47;99372.51;1696262;84;25051;-81
2022/03/10 05:35:43;;;;;;;;;;;;;;;0.10;87.53;99372.13;1700711;84;22002;-82
2022/03/10 05:38:09;;;;;;;;;;;;;;;0.12;87.61;99382.38;1700511;84;25934;-81
2022/03/10 05:40:35;;;;;;;;;;;;;;;0.13;87.69;99384.09;1703378;83;24870;-81
2022/03/10 05:43:01;;;;;;;;;;;;;;;0.14;87.77;99390.95;1693830;84;20228;-82
2022/03/10 05:45:27;;;;;;;;;;;;;;;0.16;87.84;99388.78;1695407;84;25009;-82
2022/03/10 05:47:55;;;;;;;;;;;;;;;0.16;87.89;99389.22;1700736;83;20953;-82
2022/03/10 05:50:23;;;;;;;;;;;;;;;0.15;87.93;99396.08;1696269;84;26122;-82
2022/03/10 05:52:51;;;;;;;;;;;;;;;0.17;87.97;99396.89;1705192;83;24518;-82
2022/03/10 05:55:18;;;;;;;;;;;;;;;0.15;88.03;99401.23;1701723;83;20255;-81
2022/03/10 05:57:44;;;;;;;;;;;;;;;0.11;88.02;99404.69;1697271;83;25088;-82
2022/03/10 06:00:11;;;;;;;;;;;;;;;0.12;88.04;99414.55;1704264;83;22183;-82
2022/03/10 06:02:37;;;;;;;;;;;;;;;0.12;88.01;99420.98;1705581;83;26321;-81
2022/03/10 06:05:04;;;;;;;;;;;;;;;0.08;87.95;99416.75;1702192;83;24541;-82
2022/03/10 06:07:31;;;;;;;;;;;;;;;0.08;87.93;99419.33;1699940;83;20509;-82
2022/03/10 06:09:57;;;;;;;;;;;;;;;0.03;87.80;99431.39;1699778;83;25094;-82
2022/03/10 06:12:25;;;;;;;;;;;;;;;-0.06;87.64;99432.37;1697388;83;22144;-82
2022/03/10 06:14:58;;;;;;;;;;;;;;;-0.16;87.42;99435.45;1702087;83;26196;-82
2022/03/10 06:17:24;;;;;;;;;;;;;;;-0.20;87.25;99433.79;1675174;84;24404;-82
2022/03/10 06:19:51;;;;;;;;;;;;;;;-0.23;87.12;99444.55;1680864;84;20557;-82
2022/03/10 06:22:21;;;;;;;;;;;;;;;-0.20;87.07;99453.51;1686177;84;25753;-83
2022/03/10 06:24:47;;;;;;;;;;;;;;;-0.22;87.03;99450.13;1689319;83;22001;-86
2022/03/10 06:27:14;;;;;;;;;;;;;;;-0.24;86.98;99456.99;1691568;83;26025;-85
2022/03/10 06:29:40;;;;;;;;;;;;;;;-0.22;87.04;99461.70;1692371;83;24502;-85
2022/03/10 06:32:06;;;;;;;;;;;;;;;-0.20;87.10;99465.09;1690041;83;20208;-86
2022/03/10 06:34:33;;;;;;;;;;;;;;;-0.24;87.14;99467.28;1691914;83;25104;-86
2022/03/10 06:37:00;;;;;;;;;;;;;;;-0.25;87.17;99469.42;1665262;83;21965;-83
2022/03/10 06:39:26;;;;;;;;;;;;;;;-0.29;87.20;99476.77;1684785;83;26068;-83
2022/03/10 06:41:54;;;;;;;;;;;;;;;-0.35;87.25;99486.67;1689351;83;24413;-85
2022/03/10 06:44:20;;;;;;;;;;;;;;;-0.37;87.33;99479.83;1689140;83;20251;-86
2022/03/10 06:46:46;;;;;;;;;;;;;;;-0.42;87.38;99484.59;1693596;83;24967;-86
2022/03/10 06:49:12;;;;;;;;;;;;;;;-0.42;87.45;99492.30;1689332;83;21867;-85
2022/03/10 06:51:39;;;;;;;;;;;;;;;-0.40;87.55;99496.58;1691182;83;25844;-86
2022/03/10 06:54:07;;;;;;;;;;;;;;;-0.37;87.68;99493.97;1666563;84;24485;-85
2022/03/10 06:56:33;;;;;;;;;;;;;;;-0.40;87.74;99501.72;1651834;85;20207;-85
2022/03/10 06:58:59;;;;;;;;;;;;;;;-0.47;87.72;99504.34;1630954;85;24926;-85
2022/03/10 07:01:25;;;;;;;;;;;;;;;-0.52;87.67;99504.82;1649098;87;21844;-85
2022/03/10 07:03:51;;;;;;;;;;;;;;;-0.50;87.63;99503.53;1655967;85;26086;-85
2022/03/10 07:06:17;;;;;;;;;;;;;;;-0.48;87.62;99510.77;1656884;85;24419;-85
2022/03/10 07:08:43;;;;;;;;;;;;;;;-0.47;87.62;99516.34;1626551;87;20464;-85
2022/03/10 07:11:09;;;;;;;;;;;;;;;-0.46;87.60;99517.62;1657998;85;25163;-85
2022/03/10 07:13:36;;;;;;;;;;;;;;;-0.46;87.55;99512.91;1653218;86;21957;-86
2022/03/10 07:16:02;;;;;;;;;;;;;;;-0.44;87.52;99517.16;1660706;86;26249;-85
2022/03/10 07:18:28;;;;;;;;;;;;;;;-0.39;87.53;99524.86;1657879;86;24479;-85
2022/03/10 07:20:54;;;;;;;;;;;;;;;-0.37;87.50;99527.39;1658936;86;20223;-85
2022/03/10 07:23:20;;;;;;;;;;;;;;;-0.33;87.50;99530.38;1655436;86;20246;-85
2022/03/10 07:25:47;;;;;;;;;;;;;;;-0.27;87.53;99527.77;1655014;86;22025;-85
2022/03/10 07:28:13;;;;;;;;;;;;;;;-0.19;87.61;99529.81;1659504;86;26039;-85
2022/03/10 07:30:39;;;;;;;;;;;;;;;-0.17;87.54;99532.81;1653977;86;24421;-85
2022/03/10 07:33:05;;;;;;;;;;;;;;;-0.12;87.51;99541.77;1653525;86;20541;-86
2022/03/10 07:35:34;;;;;;;;;;;;;;;-0.06;87.49;99536.56;1652816;86;25750;-85
2022/03/10 07:38:00;;;;;;;;;;;;;;;0.02;87.49;99546.77;1661742;86;22005;-86
2022/03/10 07:40:26;;;;;;;;;;;;;;;0.07;87.44;99544.99;1661505;86;26052;-81
2022/03/10 07:42:52;;;;;;;;;;;;;;;0.11;87.47;99550.55;1657123;86;24517;-81
2022/03/10 07:45:18;;;;;;;;;;;;;;;0.04;87.38;99554.05;1657442;86;20289;-83
2022/03/10 07:47:44;;;;;;;;;;;;;;;-0.09;87.18;99558.02;1659091;86;20752;-82
2022/03/10 07:50:10;;;;;;;;;;;;;;;-0.14;87.03;99558.92;1659144;86;22060;-82
2022/03/10 07:52:37;;;;;;;;;;;;;;;-0.12;87.08;99556.77;1659769;84;26045;-83
2022/03/10 07:55:03;;;;;;;;;;;;;;;-0.06;87.18;99563.15;1657980;84;24560;-83
2022/03/10 07:57:29;;;;;;;;;;;;;;;-0.02;87.26;99567.39;1656172;86;20206;-85
2022/03/10 07:59:56;;;;;;;;;;;;;;;-0.01;87.34;99568.25;1659756;86;24975;-86
2022/03/10 08:02:23;;;;;;;;;;;;;;;-0.01;87.37;99560.09;1661681;86;22046;-85
2022/03/10 08:04:49;;;;;;;;;;;;;;;0.06;87.47;99564.72;1659605;86;26187;-85
2022/03/10 08:07:17;;;;;;;;;;;;;;;0.08;87.53;99568.58;1667088;84;24484;-85
2022/03/10 08:09:43;;;;;;;;;;;;;;;0.02;87.43;99571.20;1655889;84;20391;-86
2022/03/10 08:12:09;;;;;;;;;;;;;;;0.01;87.34;99570.35;1661106;86;25029;-86
2022/03/10 08:14:35;;;;;;;;;;;;;;;0.07;87.33;99572.88;1659825;86;21918;-85
2022/03/10 08:17:01;;;;;;;;;;;;;;;0.05;87.20;99568.19;1656447;84;25956;-85
2022/03/10 08:19:28;;;;;;;;;;;;;;;0.06;87.04;99574.16;1657530;86;24468;-85
2022/03/10 08:21:54;;;;;;;;;;;;;;;0.01;86.67;99579.36;1659036;86;20218;-85
2022/03/10 08:24:20;;;;;;;;;;;;;;;-0.05;86.23;99577.69;1657440;86;20301;-85
2022/03/10 08:26:47;;;;;;;;;;;;;;;0.02;86.01;99575.06;1654595;86;21980;-86
2022/03/10 08:29:13;;;;;;;;;;;;;;;0.10;85.86;99584.44;1656163;86;26333;-85
2022/03/10 08:31:39;;;;;;;;;;;;;;;0.16;85.68;99580.95;1654304;86;24455;-85
2022/03/10 08:34:05;;;;;;;;;;;;;;;0.11;85.33;99578.86;1663565;84;20338;-85
2022/03/10 08:36:31;;;;;;;;;;;;;;;0.06;84.87;99585.31;1654131;86;20240;-85
2022/03/10 08:38:57;;;;;;;;;;;;;;;0.11;84.53;99579.69;1654412;86;22035;-86
2022/03/10 08:41:24;;;;;;;;;;;;;;;0.12;84.21;99571.53;1653541;86;26066;-86
2022/03/10 08:43:50;;;;;;;;;;;;;;;0.14;83.95;99580.95;1656088;86;24459;-84
2022/03/10 08:46:16;;;;;;;;;;;;;;;0.04;83.50;99582.35;1660483;86;20166;-87
2022/03/10 08:48:44;;;;;;;;;;;;;;;-0.07;83.04;99588.87;1654440;85;24998;-85
2022/03/10 08:51:12;;;;;;;;;;;;;;;-0.28;82.38;99589.92;1666022;86;22651;-83
2022/03/10 08:53:38;;;;;;;;;;;;;;;-0.30;81.96;99593.35;1656077;84;25993;-83
2022/03/10 08:56:06;;;;;;;;;;;;;;;-0.24;81.71;99597.16;1682498;84;20246;-84
2022/03/10 08:58:38;;;;;;;;;;;;;;;-0.14;81.53;99594.94;1676010;84;20208;-84
2022/03/10 09:01:04;;;;;;;;;;;;;;;0.01;81.48;99598.66;1668687;84;24962;-84
2022/03/10 09:03:30;;;;;;;;;;;;;;;0.09;81.37;99596.02;1675347;84;22218;-82
2022/03/10 09:05:57;;;;;;;;;;;;;;;0.12;81.07;99597.27;1693292;83;25971;-85
2022/03/10 09:08:26;;;;;;;;;;;;;;;0.21;80.85;99598.06;1680128;84;24479;-82
2022/03/10 09:10:52;;;;;;;;;;;;;;;0.33;80.74;99600.48;1687894;84;20478;-82
2022/03/10 09:13:18;;;;;;;;;;;;;;;0.42;80.53;99604.70;1691460;84;24993;-82
2022/03/10 09:15:45;;;;;;;;;;;;;;;0.48;80.32;99603.79;1690238;84;22176;-82
2022/03/10 09:18:12;;;;;;;;;;;;;;;0.51;80.04;99603.31;1674303;84;26049;-85
2022/03/10 09:20:38;;;;;;;;;;;;;;;0.52;79.80;99605.02;1690570;83;24472;-85
2022/03/10 09:23:06;;;;;;;;;;;;;;;0.45;79.42;99612.81;1681651;84;20283;-85
2022/03/10 09:25:32;;;;;;;;;;;;;;;0.38;79.01;99620.60;1678753;84;25122;-85
2022/03/10 09:27:58;;;;;;;;;;;;;;;0.30;78.36;99615.98;1672512;84;21926;-85
2022/03/10 09:30:24;;;;;;;;;;;;;;;0.34;77.94;99613.78;1705802;83;25994;-85
2022/03/10 09:32:50;;;;;;;;;;;;;;;0.38;77.59;99620.60;1702326;83;24479;-85
2022/03/10 09:35:18;;;;;;;;;;;;;;;0.40;77.20;99621.45;1708908;83;20162;-83
2022/03/10 09:37:44;;;;;;;;;;;;;;;0.43;76.86;99617.15;1708490;83;25076;-82
2022/03/10 09:40:11;;;;;;;;;;;;;;;0.38;76.39;99609.48;1711016;83;22042;-81
2022/03/10 09:42:37;;;;;;;;;;;;;;;0.26;75.75;99616.88;1703368;83;26014;-81
2022/03/10 09:45:05;;;;;;;;;;;;;;;0.19;75.09;99612.66;1702475;83;24405;-82
2022/03/10 09:47:32;;;;;;;;;;;;;;;0.23;74.65;99615.61;1705824;83;20307;-82
2022/03/10 09:49:58;;;;;;;;;;;;;;;0.27;74.34;99614.70;1701119;83;25102;-81
2022/03/10 09:52:25;;;;;;;;;;;;;;;0.19;73.75;99624.23;1707771;83;20250;-81
2022/03/10 09:54:51;;;;;;;;;;;;;;;0.17;73.24;99624.67;1700579;83;25979;-80
2022/03/10 09:57:17;;;;;;;;;;;;;;;0.22;72.95;99621.62;1699289;84;24546;-81
2022/03/10 09:59:48;;;;;;;;;;;;;;;0.25;72.63;99624.61;1699586;84;20201;-82
2022/03/10 10:02:14;;;;;;;;;;;;;;;0.23;72.23;99631.05;1695995;84;25050;-82
2022/03/10 10:04:41;;;;;;;;;;;;;;;0.20;71.88;99624.66;1703865;84;22060;-83
2022/03/10 10:07:08;;;;;;;;;;;;;;;0.20;71.44;99632.81;1701418;84;25985;-83
2022/03/10 10:09:44;;;;;;;;;;;;;;;0.14;70.98;99640.59;1699044;84;24514;-82
2022/03/10 10:12:11;;;;;;;;;;;;;;;0.15;70.58;99646.16;1693914;83;20523;-83
2022/03/10 10:14:39;;;;;;;;;;;;;;;0.13;70.10;99636.30;1699131;84;25038;-82
2022/03/10 10:17:05;;;;;;;;;;;;;;;0.14;69.59;99632.86;1693995;84;22083;-82
2022/03/10 10:19:33;;;;;;;;;;;;;;;0.20;69.21;99635.39;1698019;84;21114;-82
2022/03/10 10:22:09;;;;;;;;;;;;;;;0.28;68.93;99634.44;1699471;84;24598;-83
2022/03/10 10:24:36;;;;;;;;;;;;;;;0.43;68.78;99644.19;1692465;84;20208;-83
2022/03/10 10:27:13;;;;;;;;;;;;;;;0.46;68.51;99638.56;1698890;84;25123;-83
2022/03/10 10:29:46;;;;;;;;;;;;;;;0.42;67.97;99643.33;1707113;83;22605;-83
2022/03/10 10:32:12;;;;;;;;;;;;;;;0.47;67.60;99640.70;1699121;84;25969;-82
2022/03/10 10:34:38;;;;;;;;;;;;;;;0.54;67.28;99647.08;1697692;84;24462;-83
2022/03/10 10:37:04;;;;;;;;;;;;;;;0.53;66.90;99639.36;1696665;84;20292;-82
2022/03/10 10:39:31;;;;;;;;;;;;;;;0.56;66.63;99636.73;1697227;84;24992;-83
2022/03/10 10:41:57;;;;;;;;;;;;;;;0.59;66.29;99640.59;1697499;84;22039;-82
2022/03/10 10:44:23;;;;;;;;;;;;;;;0.60;65.98;99646.16;1699012;84;26018;-83
2022/03/10 10:46:51;;;;;;;;;;;;;;;0.55;65.67;99632.45;1694228;84;24493;-83
2022/03/10 10:49:18;;;;;;;;;;;;;;;0.55;65.31;99636.31;1699876;83;20222;-83
2022/03/10 10:51:54;;;;;;;;;;;;;;;0.60;65.07;99629.42;1695673;84;24609;-82
2022/03/10 10:54:23;;;;;;;;;;;;;;;0.65;64.84;99633.66;1697269;83;22043;-82
2022/03/10 10:56:51;;;;;;;;;;;;;;;0.70;64.67;99634.89;1704455;83;26851;-83
2022/03/10 10:59:27;;;;;;;;;;;;;;;0.65;64.24;99640.52;1702207;83;24542;-83
2022/03/10 11:02:10;;;;;;;;;;;;;;;0.62;63.87;99632.81;1703308;83;20250;-82
2022/03/10 11:04:37;;;;;;;;;;;;;;;0.60;63.44;99633.28;1703162;83;25091;-82
2022/03/10 11:07:04;;;;;;;;;;;;;;;0.58;63.07;99635.87;1705765;83;22027;-82
2022/03/10 11:09:33;;;;;;;;;;;;;;;0.68;62.88;99635.33;1702644;83;26133;-82
2022/03/10 11:11:59;;;;;;;;;;;;;;;0.72;62.65;99635.27;1705763;83;24443;-82
2022/03/10 11:14:26;;;;;;;;;;;;;;;0.82;62.51;99637.30;1703670;83;20481;-82
2022/03/10 11:16:53;;;;;;;;;;;;;;;0.77;62.20;99637.79;1712202;83;25049;-83
2022/03/10 11:19:25;;;;;;;;;;;;;;;0.81;62.02;99640.34;1704329;83;21999;-83
2022/03/10 11:21:56;;;;;;;;;;;;;;;0.86;61.86;99640.72;1702250;83;26018;-82
2022/03/10 11:24:41;;;;;;;;;;;;;;;0.85;61.68;99638.57;1704107;83;24455;-83
2022/03/10 11:27:18;;;;;;;;;;;;;;;0.88;61.54;99641.09;1700987;83;20252;-82
2022/03/10 11:29:49;;;;;;;;;;;;;;;0.92;61.37;99631.62;1679569;83;25057;-82
2022/03/10 11:32:16;;;;;;;;;;;;;;;0.89;61.08;99636.37;1701004;83;21884;-82
2022/03/10 11:34:54;;;;;;;;;;;;;;;0.81;60.66;99636.91;1701674;83;26024;-82
2022/03/10 11:37:39;;;;;;;;;;;;;;;0.78;60.32;99643.37;1706234;83;24560;-83
2022/03/10 11:40:05;;;;;;;;;;;;;;;0.80;60.07;99632.19;1698571;83;20250;-82
2022/03/10 11:42:33;;;;;;;;;;;;;;;0.89;59.91;99631.64;1708171;83;24944;-82
2022/03/10 11:45:06;;;;;;;;;;;;;;;0.94;59.80;99635.87;1701600;83;22034;-83
2022/03/10 11:47:33;;;;;;;;;;;;;;;0.89;59.49;99637.66;1706780;83;26174;-82
2022/03/10 11:50:00;;;;;;;;;;;;;;;0.88;59.24;99633.80;1704325;83;24439;-82
2022/03/10 11:52:29;;;;;;;;;;;;;;;0.88;59.03;99641.09;1697943;83;20312;-82
2022/03/10 11:55:06;;;;;;;;;;;;;;;0.88;58.84;99639.81;1698791;83;25140;-82
2022/03/10 11:57:53;;;;;;;;;;;;;;;0.92;58.65;99645.37;1703438;83;22492;-82
2022/03/10 12:00:20;;;;;;;;;;;;;;;0.92;58.41;99645.37;1704311;83;26440;-82
2022/03/10 12:02:49;;;;;;;;;;;;;;;0.91;58.16;99646.66;1701270;83;24688;-82
2022/03/10 12:05:15;;;;;;;;;;;;;;;0.94;57.99;99646.62;1706678;83;20238;-81
2022/03/10 12:07:42;;;;;;;;;;;;;;;1.00;57.88;99651.27;1704404;83;25013;-82
2022/03/10 12:10:11;;;;;;;;;;;;;;;1.04;57.79;99645.63;1686201;83;20150;-81
2022/03/10 12:12:45;;;;;;;;;;;;;;;1.15;57.79;99654.94;1686721;83;26409;-83
2022/03/10 12:15:32;;;;;;;;;;;;;;;1.17;57.73;99648.48;1707488;83;24517;-84
2022/03/10 12:18:02;;;;;;;;;;;;;;;1.15;57.55;99641.20;1702748;83;20322;-83
2022/03/10 12:20:39;;;;;;;;;;;;;;;1.19;57.41;99638.59;1706908;83;24976;-83
2022/03/10 12:23:07;;;;;;;;;;;;;;;1.19;57.27;99646.32;1706945;83;22036;-83
2022/03/10 12:25:50;;;;;;;;;;;;;;;1.13;57.00;99642.52;1705333;83;26041;-82
2022/03/10 12:28:26;;;;;;;;;;;;;;;1.12;56.84;99641.25;1705365;83;24493;-85
2022/03/10 12:30:54;;;;;;;;;;;;;;;1.11;56.61;99644.26;1678030;83;20459;-83
2022/03/10 12:33:20;;;;;;;;;;;;;;;1.19;56.56;99637.30;1684985;83;25628;-83
2022/03/10 12:35:46;;;;;;;;;;;;;;;1.30;56.57;99640.17;1705372;83;22043;-83
2022/03/10 12:38:12;;;;;;;;;;;;;;;1.35;56.55;99649.98;1706925;83;25997;-82
2022/03/10 12:40:39;;;;;;;;;;;;;;;1.29;56.39;99645.75;1706740;83;24472;-83
2022/03/10 12:43:07;;;;;;;;;;;;;;;1.26;56.23;99642.77;1710861;83;20196;-83
2022/03/10 12:45:35;;;;;;;;;;;;;;;1.33;56.17;99645.27;1697084;83;25981;-83
2022/03/10 12:48:06;;;;;;;;;;;;;;;1.25;55.94;99634.61;1701547;83;22682;-83
2022/03/10 12:50:33;;;;;;;;;;;;;;;1.25;55.78;99633.32;1706346;83;25987;-83
2022/03/10 12:53:01;;;;;;;;;;;;;;;1.27;55.70;99633.31;1702729;83;24429;-83
2022/03/10 12:55:27;;;;;;;;;;;;;;;1.28;55.58;99631.16;1706923;83;20265;-85
2022/03/10 12:57:58;;;;;;;;;;;;;;;1.30;55.49;99640.17;1705896;83;25802;-85
2022/03/10 13:00:25;;;;;;;;;;;;;;;1.31;55.40;99649.61;1708408;83;22077;-85